sensor_id;sensor_type;location;lat;lon;timestamp;P1;durP1;ratioP1;P2;durP2;ratioP2
36575;SDS011;45700;50.930;5.168;2023-04-03T00:00:03;5.15;;;2.90;;
36575;SDS011;45700;50.930;5.168;2023-04-03T00:04:05;6.95;;;3.50;;
36575;SDS011;45700;50.930;5.168;2023-04-03T00:08:06;7.18;;;3.22;;
36575;SDS011;45700;50.930;5.168;2023-04-03T00:12:09;9.00;;;3.13;;
36575;SDS011;45700;50.930;5.168;2023-04-03T00:16:11;8.32;;;4.03;;
36575;SDS011;45700;50.930;5.168;2023-04-03T00:20:12;6.20;;;3.65;;
36575;SDS011;45700;50.930;5.168;2023-04-03T00:24:13;6.68;;;3.03;;
36575;SDS011;45700;50.930;5.168;2023-04-03T00:28:14;6.13;;;3.72;;
36575;SDS011;45700;50.930;5.168;2023-04-03T00:32:15;6.40;;;3.50;;
36575;SDS011;45700;50.930;5.168;2023-04-03T00:36:16;9.65;;;4.00;;
36575;SDS011;45700;50.930;5.168;2023-04-03T00:40:17;11.32;;;4.00;;
36575;SDS011;45700;50.930;5.168;2023-04-03T00:44:19;7.55;;;3.80;;
36575;SDS011;45700;50.930;5.168;2023-04-03T00:48:43;7.30;;;4.18;;
36575;SDS011;45700;50.930;5.168;2023-04-03T00:52:42;7.05;;;4.38;;
36575;SDS011;45700;50.930;5.168;2023-04-03T00:56:43;9.70;;;4.20;;
36575;SDS011;45700;50.930;5.168;2023-04-03T01:00:44;5.15;;;3.13;;
36575;SDS011;45700;50.930;5.168;2023-04-03T01:04:47;7.03;;;3.65;;
36575;SDS011;45700;50.930;5.168;2023-04-03T01:08:48;6.72;;;3.83;;
36575;SDS011;45700;50.930;5.168;2023-04-03T01:12:50;6.15;;;3.47;;
36575;SDS011;45700;50.930;5.168;2023-04-03T01:16:52;6.63;;;3.70;;
36575;SDS011;45700;50.930;5.168;2023-04-03T01:21:13;9.40;;;3.90;;
36575;SDS011;45700;50.930;5.168;2023-04-03T01:25:19;7.43;;;3.63;;
36575;SDS011;45700;50.930;5.168;2023-04-03T01:29:20;10.20;;;4.25;;
36575;SDS011;45700;50.930;5.168;2023-04-03T01:33:21;8.38;;;3.88;;
36575;SDS011;45700;50.930;5.168;2023-04-03T01:37:22;14.68;;;4.38;;
36575;SDS011;45700;50.930;5.168;2023-04-03T01:41:23;11.32;;;4.55;;
36575;SDS011;45700;50.930;5.168;2023-04-03T01:45:25;13.43;;;4.65;;
36575;SDS011;45700;50.930;5.168;2023-04-03T01:49:26;5.45;;;4.00;;
36575;SDS011;45700;50.930;5.168;2023-04-03T01:53:27;13.55;;;4.22;;
36575;SDS011;45700;50.930;5.168;2023-04-03T01:57:29;5.97;;;4.50;;
36575;SDS011;45700;50.930;5.168;2023-04-03T02:01:30;10.50;;;4.32;;
36575;SDS011;45700;50.930;5.168;2023-04-03T02:05:31;10.85;;;4.57;;
36575;SDS011;45700;50.930;5.168;2023-04-03T02:09:32;11.75;;;4.60;;
36575;SDS011;45700;50.930;5.168;2023-04-03T02:13:34;14.02;;;4.95;;
36575;SDS011;45700;50.930;5.168;2023-04-03T02:17:35;12.30;;;4.82;;
36575;SDS011;45700;50.930;5.168;2023-04-03T02:21:36;12.75;;;4.63;;
36575;SDS011;45700;50.930;5.168;2023-04-03T02:25:37;12.20;;;4.65;;
36575;SDS011;45700;50.930;5.168;2023-04-03T02:29:38;12.30;;;5.22;;
36575;SDS011;45700;50.930;5.168;2023-04-03T02:33:39;7.18;;;4.65;;
36575;SDS011;45700;50.930;5.168;2023-04-03T02:37:40;12.32;;;5.10;;
36575;SDS011;45700;50.930;5.168;2023-04-03T02:41:41;9.05;;;4.70;;
36575;SDS011;45700;50.930;5.168;2023-04-03T02:45:42;7.80;;;4.25;;
36575;SDS011;45700;50.930;5.168;2023-04-03T02:49:43;12.93;;;4.93;;
36575;SDS011;45700;50.930;5.168;2023-04-03T02:53:45;9.30;;;5.05;;
36575;SDS011;45700;50.930;5.168;2023-04-03T02:57:46;10.48;;;5.47;;
36575;SDS011;45700;50.930;5.168;2023-04-03T03:01:47;13.65;;;5.20;;
36575;SDS011;45700;50.930;5.168;2023-04-03T03:05:48;11.60;;;5.05;;
36575;SDS011;45700;50.930;5.168;2023-04-03T03:09:49;14.35;;;5.13;;
36575;SDS011;45700;50.930;5.168;2023-04-03T03:13:50;13.98;;;5.13;;
36575;SDS011;45700;50.930;5.168;2023-04-03T03:17:51;11.55;;;5.18;;
36575;SDS011;45700;50.930;5.168;2023-04-03T03:21:52;10.35;;;5.00;;
36575;SDS011;45700;50.930;5.168;2023-04-03T03:25:54;11.85;;;4.78;;
36575;SDS011;45700;50.930;5.168;2023-04-03T03:29:56;11.43;;;5.35;;
36575;SDS011;45700;50.930;5.168;2023-04-03T03:33:57;10.35;;;5.18;;
36575;SDS011;45700;50.930;5.168;2023-04-03T03:37:58;9.73;;;4.78;;
36575;SDS011;45700;50.930;5.168;2023-04-03T03:41:59;12.35;;;5.45;;
36575;SDS011;45700;50.930;5.168;2023-04-03T03:46:00;12.07;;;5.35;;
36575;SDS011;45700;50.930;5.168;2023-04-03T03:50:01;9.52;;;4.78;;
36575;SDS011;45700;50.930;5.168;2023-04-03T03:54:03;13.18;;;5.57;;
36575;SDS011;45700;50.930;5.168;2023-04-03T03:58:04;11.88;;;4.80;;
36575;SDS011;45700;50.930;5.168;2023-04-03T04:02:05;9.93;;;5.38;;
36575;SDS011;45700;50.930;5.168;2023-04-03T04:06:06;10.30;;;6.03;;
36575;SDS011;45700;50.930;5.168;2023-04-03T04:10:07;12.40;;;5.57;;
36575;SDS011;45700;50.930;5.168;2023-04-03T04:14:09;10.98;;;5.93;;
36575;SDS011;45700;50.930;5.168;2023-04-03T04:18:12;11.07;;;5.65;;
36575;SDS011;45700;50.930;5.168;2023-04-03T04:22:13;10.65;;;5.82;;
36575;SDS011;45700;50.930;5.168;2023-04-03T04:26:14;10.63;;;5.60;;
36575;SDS011;45700;50.930;5.168;2023-04-03T04:30:15;12.73;;;5.90;;
36575;SDS011;45700;50.930;5.168;2023-04-03T04:34:16;10.65;;;5.63;;
36575;SDS011;45700;50.930;5.168;2023-04-03T04:38:17;12.40;;;5.93;;
36575;SDS011;45700;50.930;5.168;2023-04-03T04:42:18;10.20;;;5.55;;
36575;SDS011;45700;50.930;5.168;2023-04-03T04:46:19;12.93;;;5.97;;
36575;SDS011;45700;50.930;5.168;2023-04-03T04:50:20;17.02;;;6.55;;
36575;SDS011;45700;50.930;5.168;2023-04-03T04:54:21;10.98;;;6.05;;
36575;SDS011;45700;50.930;5.168;2023-04-03T04:58:22;15.10;;;6.30;;
36575;SDS011;45700;50.930;5.168;2023-04-03T05:02:23;14.57;;;6.53;;
36575;SDS011;45700;50.930;5.168;2023-04-03T05:06:24;13.00;;;6.70;;
36575;SDS011;45700;50.930;5.168;2023-04-03T05:10:25;17.13;;;7.88;;
36575;SDS011;45700;50.930;5.168;2023-04-03T05:14:26;11.65;;;6.03;;
36575;SDS011;45700;50.930;5.168;2023-04-03T05:18:27;12.15;;;6.28;;
36575;SDS011;45700;50.930;5.168;2023-04-03T05:22:28;14.77;;;6.97;;
36575;SDS011;45700;50.930;5.168;2023-04-03T05:26:30;19.67;;;7.55;;
36575;SDS011;45700;50.930;5.168;2023-04-03T05:30:31;13.90;;;7.18;;
36575;SDS011;45700;50.930;5.168;2023-04-03T05:34:32;16.40;;;7.13;;
36575;SDS011;45700;50.930;5.168;2023-04-03T05:38:33;14.73;;;8.57;;
36575;SDS011;45700;50.930;5.168;2023-04-03T05:42:34;16.65;;;8.45;;
36575;SDS011;45700;50.930;5.168;2023-04-03T05:46:36;22.95;;;8.27;;
36575;SDS011;45700;50.930;5.168;2023-04-03T05:50:37;23.75;;;9.07;;
36575;SDS011;45700;50.930;5.168;2023-04-03T05:54:41;22.00;;;8.52;;
36575;SDS011;45700;50.930;5.168;2023-04-03T05:58:43;16.77;;;7.95;;
36575;SDS011;45700;50.930;5.168;2023-04-03T06:02:44;18.25;;;8.43;;
36575;SDS011;45700;50.930;5.168;2023-04-03T06:06:52;15.63;;;8.93;;
36575;SDS011;45700;50.930;5.168;2023-04-03T06:10:53;21.37;;;8.47;;
36575;SDS011;45700;50.930;5.168;2023-04-03T06:14:54;15.48;;;8.55;;
36575;SDS011;45700;50.930;5.168;2023-04-03T06:18:55;21.88;;;8.90;;
36575;SDS011;45700;50.930;5.168;2023-04-03T06:22:57;16.85;;;8.18;;
36575;SDS011;45700;50.930;5.168;2023-04-03T06:26:58;12.98;;;7.43;;
36575;SDS011;45700;50.930;5.168;2023-04-03T06:30:59;24.85;;;7.68;;
36575;SDS011;45700;50.930;5.168;2023-04-03T06:35:00;17.20;;;7.28;;
36575;SDS011;45700;50.930;5.168;2023-04-03T06:39:01;10.82;;;6.30;;
36575;SDS011;45700;50.930;5.168;2023-04-03T06:43:03;11.65;;;6.13;;
36575;SDS011;45700;50.930;5.168;2023-04-03T06:47:05;13.95;;;6.32;;
36575;SDS011;45700;50.930;5.168;2023-04-03T06:51:06;10.52;;;5.43;;
36575;SDS011;45700;50.930;5.168;2023-04-03T06:55:07;9.40;;;4.90;;
36575;SDS011;45700;50.930;5.168;2023-04-03T06:59:09;9.82;;;4.93;;
36575;SDS011;45700;50.930;5.168;2023-04-03T07:03:11;9.00;;;4.88;;
36575;SDS011;45700;50.930;5.168;2023-04-03T07:07:12;9.75;;;4.63;;
36575;SDS011;45700;50.930;5.168;2023-04-03T07:11:13;9.35;;;4.90;;
36575;SDS011;45700;50.930;5.168;2023-04-03T07:15:14;9.40;;;4.70;;
36575;SDS011;45700;50.930;5.168;2023-04-03T07:19:15;9.38;;;4.10;;
36575;SDS011;45700;50.930;5.168;2023-04-03T07:23:18;8.73;;;4.00;;
36575;SDS011;45700;50.930;5.168;2023-04-03T07:27:19;8.13;;;3.83;;
36575;SDS011;45700;50.930;5.168;2023-04-03T07:31:20;10.45;;;3.65;;
36575;SDS011;45700;50.930;5.168;2023-04-03T07:35:21;10.68;;;4.30;;
36575;SDS011;45700;50.930;5.168;2023-04-03T07:39:22;6.07;;;3.83;;
36575;SDS011;45700;50.930;5.168;2023-04-03T07:43:23;8.50;;;3.80;;
36575;SDS011;45700;50.930;5.168;2023-04-03T07:47:25;7.70;;;3.10;;
36575;SDS011;45700;50.930;5.168;2023-04-03T07:51:26;4.85;;;3.10;;
36575;SDS011;45700;50.930;5.168;2023-04-03T07:55:28;7.55;;;3.05;;
36575;SDS011;45700;50.930;5.168;2023-04-03T07:59:29;10.82;;;3.20;;
36575;SDS011;45700;50.930;5.168;2023-04-03T08:03:30;8.57;;;3.33;;
36575;SDS011;45700;50.930;5.168;2023-04-03T08:07:31;10.00;;;3.25;;
36575;SDS011;45700;50.930;5.168;2023-04-03T08:11:32;5.20;;;2.92;;
36575;SDS011;45700;50.930;5.168;2023-04-03T08:15:33;7.10;;;2.78;;
36575;SDS011;45700;50.930;5.168;2023-04-03T08:19:34;11.02;;;3.40;;
36575;SDS011;45700;50.930;5.168;2023-04-03T08:23:36;5.43;;;2.75;;
36575;SDS011;45700;50.930;5.168;2023-04-03T08:27:37;7.90;;;2.85;;
36575;SDS011;45700;50.930;5.168;2023-04-03T08:31:38;6.55;;;2.33;;
36575;SDS011;45700;50.930;5.168;2023-04-03T08:35:39;9.35;;;3.42;;
36575;SDS011;45700;50.930;5.168;2023-04-03T08:39:41;5.50;;;2.55;;
36575;SDS011;45700;50.930;5.168;2023-04-03T08:47:47;5.93;;;2.42;;
36575;SDS011;45700;50.930;5.168;2023-04-03T08:51:50;9.82;;;2.45;;
36575;SDS011;45700;50.930;5.168;2023-04-03T08:55:52;5.40;;;1.80;;
36575;SDS011;45700;50.930;5.168;2023-04-03T08:59:54;6.53;;;2.10;;
36575;SDS011;45700;50.930;5.168;2023-04-03T09:03:55;4.47;;;2.20;;
36575;SDS011;45700;50.930;5.168;2023-04-03T09:08:00;3.05;;;2.10;;
36575;SDS011;45700;50.930;5.168;2023-04-03T09:16:43;5.53;;;1.60;;
36575;SDS011;45700;50.930;5.168;2023-04-03T09:29:26;4.10;;;1.30;;
36575;SDS011;45700;50.930;5.168;2023-04-03T09:33:27;5.50;;;1.73;;
36575;SDS011;45700;50.930;5.168;2023-04-03T09:37:35;5.10;;;1.30;;
36575;SDS011;45700;50.930;5.168;2023-04-03T09:41:37;4.72;;;1.38;;
36575;SDS011;45700;50.930;5.168;2023-04-03T09:45:38;5.05;;;2.10;;
36575;SDS011;45700;50.930;5.168;2023-04-03T09:49:39;3.60;;;1.25;;
36575;SDS011;45700;50.930;5.168;2023-04-03T09:53:41;4.90;;;1.33;;
36575;SDS011;45700;50.930;5.168;2023-04-03T09:57:43;1.77;;;0.80;;
36575;SDS011;45700;50.930;5.168;2023-04-03T10:01:56;2.20;;;1.20;;
36575;SDS011;45700;50.930;5.168;2023-04-03T10:05:58;3.53;;;1.55;;
36575;SDS011;45700;50.930;5.168;2023-04-03T10:10:01;6.40;;;1.83;;
36575;SDS011;45700;50.930;5.168;2023-04-03T10:14:03;2.45;;;1.25;;
36575;SDS011;45700;50.930;5.168;2023-04-03T10:18:06;4.75;;;1.35;;
36575;SDS011;45700;50.930;5.168;2023-04-03T10:34:21;2.88;;;0.98;;
36575;SDS011;45700;50.930;5.168;2023-04-03T10:42:48;7.00;;;1.40;;
36575;SDS011;45700;50.930;5.168;2023-04-03T10:51:25;1.55;;;1.00;;
36575;SDS011;45700;50.930;5.168;2023-04-03T10:55:46;3.78;;;0.63;;
36575;SDS011;45700;50.930;5.168;2023-04-03T11:00:03;5.07;;;0.95;;
36575;SDS011;45700;50.930;5.168;2023-04-03T11:04:08;1.67;;;0.70;;
36575;SDS011;45700;50.930;5.168;2023-04-03T11:08:57;2.15;;;1.30;;
36575;SDS011;45700;50.930;5.168;2023-04-03T11:12:41;3.08;;;0.88;;
36575;SDS011;45700;50.930;5.168;2023-04-03T11:16:43;1.35;;;0.70;;
36575;SDS011;45700;50.930;5.168;2023-04-03T11:21:00;1.58;;;1.00;;
36575;SDS011;45700;50.930;5.168;2023-04-03T11:29:06;1.00;;;0.70;;
36575;SDS011;45700;50.930;5.168;2023-04-03T11:37:15;2.35;;;0.40;;
36575;SDS011;45700;50.930;5.168;2023-04-03T11:41:17;0.52;;;0.38;;
36575;SDS011;45700;50.930;5.168;2023-04-03T11:45:27;2.03;;;0.50;;
36575;SDS011;45700;50.930;5.168;2023-04-03T11:58:36;3.13;;;0.57;;
36575;SDS011;45700;50.930;5.168;2023-04-03T12:02:37;0.70;;;0.50;;
36575;SDS011;45700;50.930;5.168;2023-04-03T12:10:40;1.08;;;0.50;;
36575;SDS011;45700;50.930;5.168;2023-04-03T12:14:41;1.38;;;0.65;;
36575;SDS011;45700;50.930;5.168;2023-04-03T12:18:48;1.67;;;0.60;;
36575;SDS011;45700;50.930;5.168;2023-04-03T12:23:08;6.35;;;0.73;;
36575;SDS011;45700;50.930;5.168;2023-04-03T12:31:25;2.05;;;0.60;;
36575;SDS011;45700;50.930;5.168;2023-04-03T12:48:17;1.83;;;0.70;;
36575;SDS011;45700;50.930;5.168;2023-04-03T12:52:19;1.07;;;0.50;;
36575;SDS011;45700;50.930;5.168;2023-04-03T12:56:27;1.08;;;0.60;;
36575;SDS011;45700;50.930;5.168;2023-04-03T13:04:31;0.95;;;0.75;;
36575;SDS011;45700;50.930;5.168;2023-04-03T13:08:32;1.48;;;0.73;;
36575;SDS011;45700;50.930;5.168;2023-04-03T13:12:34;1.10;;;1.00;;
36575;SDS011;45700;50.930;5.168;2023-04-03T13:16:35;3.45;;;0.73;;
36575;SDS011;45700;50.930;5.168;2023-04-03T13:20:37;1.38;;;0.70;;
36575;SDS011;45700;50.930;5.168;2023-04-03T13:24:38;2.05;;;0.90;;
36575;SDS011;45700;50.930;5.168;2023-04-03T13:28:39;2.25;;;0.75;;
36575;SDS011;45700;50.930;5.168;2023-04-03T13:32:41;1.05;;;0.82;;
36575;SDS011;45700;50.930;5.168;2023-04-03T13:40:52;2.40;;;0.82;;
36575;SDS011;45700;50.930;5.168;2023-04-03T13:49:30;2.75;;;0.73;;
36575;SDS011;45700;50.930;5.168;2023-04-03T13:53:32;4.07;;;0.98;;
36575;SDS011;45700;50.930;5.168;2023-04-03T13:57:34;4.43;;;1.42;;
36575;SDS011;45700;50.930;5.168;2023-04-03T14:01:43;2.92;;;0.85;;
36575;SDS011;45700;50.930;5.168;2023-04-03T14:05:45;5.88;;;1.20;;
36575;SDS011;45700;50.930;5.168;2023-04-03T14:09:45;5.35;;;1.50;;
36575;SDS011;45700;50.930;5.168;2023-04-03T14:13:47;4.35;;;1.23;;
36575;SDS011;45700;50.930;5.168;2023-04-03T14:17:48;4.82;;;1.23;;
36575;SDS011;45700;50.930;5.168;2023-04-03T14:21:52;1.58;;;0.75;;
36575;SDS011;45700;50.930;5.168;2023-04-03T14:25:53;3.40;;;1.20;;
36575;SDS011;45700;50.930;5.168;2023-04-03T14:29:55;1.70;;;1.10;;
36575;SDS011;45700;50.930;5.168;2023-04-03T14:33:56;3.40;;;1.42;;
36575;SDS011;45700;50.930;5.168;2023-04-03T14:37:57;2.10;;;1.40;;
36575;SDS011;45700;50.930;5.168;2023-04-03T14:41:58;7.15;;;1.45;;
36575;SDS011;45700;50.930;5.168;2023-04-03T14:45:59;4.68;;;1.38;;
36575;SDS011;45700;50.930;5.168;2023-04-03T14:50:03;5.53;;;1.42;;
36575;SDS011;45700;50.930;5.168;2023-04-03T14:54:05;2.15;;;0.77;;
36575;SDS011;45700;50.930;5.168;2023-04-03T14:58:08;1.77;;;0.80;;
36575;SDS011;45700;50.930;5.168;2023-04-03T15:02:12;2.35;;;1.17;;
36575;SDS011;45700;50.930;5.168;2023-04-03T15:06:22;3.85;;;1.13;;
36575;SDS011;45700;50.930;5.168;2023-04-03T15:10:24;3.50;;;1.08;;
36575;SDS011;45700;50.930;5.168;2023-04-03T15:14:25;3.83;;;1.15;;
36575;SDS011;45700;50.930;5.168;2023-04-03T15:18:27;4.32;;;0.93;;
36575;SDS011;45700;50.930;5.168;2023-04-03T15:22:28;6.32;;;1.50;;
36575;SDS011;45700;50.930;5.168;2023-04-03T15:26:29;1.98;;;0.82;;
36575;SDS011;45700;50.930;5.168;2023-04-03T15:30:31;6.05;;;2.17;;
36575;SDS011;45700;50.930;5.168;2023-04-03T15:34:32;2.53;;;0.60;;
36575;SDS011;45700;50.930;5.168;2023-04-03T15:38:33;3.90;;;1.40;;
36575;SDS011;45700;50.930;5.168;2023-04-03T15:42:34;5.40;;;1.45;;
36575;SDS011;45700;50.930;5.168;2023-04-03T15:46:35;3.67;;;0.98;;
36575;SDS011;45700;50.930;5.168;2023-04-03T15:50:36;1.25;;;0.70;;
36575;SDS011;45700;50.930;5.168;2023-04-03T15:54:38;4.90;;;1.30;;
36575;SDS011;45700;50.930;5.168;2023-04-03T15:58:39;2.08;;;0.93;;
36575;SDS011;45700;50.930;5.168;2023-04-03T16:02:40;3.08;;;0.90;;
36575;SDS011;45700;50.930;5.168;2023-04-03T16:06:41;1.95;;;1.30;;
36575;SDS011;45700;50.930;5.168;2023-04-03T16:15:22;1.15;;;0.68;;
36575;SDS011;45700;50.930;5.168;2023-04-03T16:19:23;3.30;;;1.00;;
36575;SDS011;45700;50.930;5.168;2023-04-03T16:23:24;1.98;;;0.90;;
36575;SDS011;45700;50.930;5.168;2023-04-03T16:27:25;4.38;;;1.00;;
36575;SDS011;45700;50.930;5.168;2023-04-03T16:31:27;2.75;;;1.05;;
36575;SDS011;45700;50.930;5.168;2023-04-03T16:35:29;5.00;;;1.90;;
36575;SDS011;45700;50.930;5.168;2023-04-03T16:39:30;4.07;;;0.95;;
36575;SDS011;45700;50.930;5.168;2023-04-03T16:43:31;4.15;;;1.23;;
36575;SDS011;45700;50.930;5.168;2023-04-03T16:47:33;3.30;;;1.50;;
36575;SDS011;45700;50.930;5.168;2023-04-03T16:51:34;12.45;;;4.40;;
36575;SDS011;45700;50.930;5.168;2023-04-03T16:55:35;3.13;;;1.10;;
36575;SDS011;45700;50.930;5.168;2023-04-03T16:59:36;2.50;;;1.30;;
36575;SDS011;45700;50.930;5.168;2023-04-03T17:03:37;4.07;;;0.90;;
36575;SDS011;45700;50.930;5.168;2023-04-03T17:07:38;4.00;;;1.08;;
36575;SDS011;45700;50.930;5.168;2023-04-03T17:11:39;2.25;;;0.93;;
36575;SDS011;45700;50.930;5.168;2023-04-03T17:15:41;1.95;;;0.77;;
36575;SDS011;45700;50.930;5.168;2023-04-03T17:19:42;3.92;;;1.63;;
36575;SDS011;45700;50.930;5.168;2023-04-03T17:23:44;3.03;;;1.13;;
36575;SDS011;45700;50.930;5.168;2023-04-03T17:27:46;2.47;;;1.00;;
36575;SDS011;45700;50.930;5.168;2023-04-03T17:31:47;2.38;;;1.00;;
36575;SDS011;45700;50.930;5.168;2023-04-03T17:35:48;6.68;;;1.15;;
36575;SDS011;45700;50.930;5.168;2023-04-03T17:39:49;2.60;;;1.10;;
36575;SDS011;45700;50.930;5.168;2023-04-03T17:43:50;1.88;;;0.93;;
36575;SDS011;45700;50.930;5.168;2023-04-03T17:47:51;8.05;;;1.67;;
36575;SDS011;45700;50.930;5.168;2023-04-03T17:51:52;2.95;;;1.10;;
36575;SDS011;45700;50.930;5.168;2023-04-03T17:55:53;3.85;;;0.93;;
36575;SDS011;45700;50.930;5.168;2023-04-03T17:59:54;2.70;;;0.88;;
36575;SDS011;45700;50.930;5.168;2023-04-03T18:03:57;3.78;;;1.10;;
36575;SDS011;45700;50.930;5.168;2023-04-03T18:07:58;5.70;;;1.25;;
36575;SDS011;45700;50.930;5.168;2023-04-03T18:12:01;1.08;;;0.88;;
36575;SDS011;45700;50.930;5.168;2023-04-03T18:16:06;1.90;;;0.80;;
36575;SDS011;45700;50.930;5.168;2023-04-03T18:20:07;2.60;;;1.27;;
36575;SDS011;45700;50.930;5.168;2023-04-03T18:24:11;4.78;;;0.90;;
36575;SDS011;45700;50.930;5.168;2023-04-03T18:28:12;4.72;;;0.80;;
36575;SDS011;45700;50.930;5.168;2023-04-03T18:32:14;2.25;;;0.77;;
36575;SDS011;45700;50.930;5.168;2023-04-03T18:36:15;3.20;;;1.23;;
36575;SDS011;45700;50.930;5.168;2023-04-03T18:40:16;4.03;;;0.90;;
36575;SDS011;45700;50.930;5.168;2023-04-03T18:44:18;3.25;;;1.30;;
36575;SDS011;45700;50.930;5.168;2023-04-03T18:48:20;3.33;;;1.23;;
36575;SDS011;45700;50.930;5.168;2023-04-03T18:52:21;5.22;;;0.98;;
36575;SDS011;45700;50.930;5.168;2023-04-03T18:56:24;3.65;;;1.25;;
36575;SDS011;45700;50.930;5.168;2023-04-03T19:00:25;3.97;;;1.45;;
36575;SDS011;45700;50.930;5.168;2023-04-03T19:04:27;2.25;;;1.05;;
36575;SDS011;45700;50.930;5.168;2023-04-03T19:08:28;5.35;;;1.15;;
36575;SDS011;45700;50.930;5.168;2023-04-03T19:12:29;4.55;;;0.98;;
36575;SDS011;45700;50.930;5.168;2023-04-03T19:16:31;3.15;;;0.95;;
36575;SDS011;45700;50.930;5.168;2023-04-03T19:20:32;1.58;;;0.80;;
36575;SDS011;45700;50.930;5.168;2023-04-03T19:24:33;5.85;;;1.45;;
36575;SDS011;45700;50.930;5.168;2023-04-03T19:28:34;10.15;;;1.50;;
36575;SDS011;45700;50.930;5.168;2023-04-03T19:32:37;3.15;;;1.42;;
36575;SDS011;45700;50.930;5.168;2023-04-03T19:36:38;5.07;;;1.25;;
36575;SDS011;45700;50.930;5.168;2023-04-03T19:40:39;5.78;;;1.52;;
36575;SDS011;45700;50.930;5.168;2023-04-03T19:44:42;2.45;;;1.70;;
36575;SDS011;45700;50.930;5.168;2023-04-03T19:48:44;5.00;;;1.50;;
36575;SDS011;45700;50.930;5.168;2023-04-03T19:52:46;7.53;;;1.38;;
36575;SDS011;45700;50.930;5.168;2023-04-03T19:56:47;3.58;;;1.58;;
36575;SDS011;45700;50.930;5.168;2023-04-03T20:00:48;2.88;;;1.48;;
36575;SDS011;45700;50.930;5.168;2023-04-03T20:04:50;3.95;;;1.67;;
36575;SDS011;45700;50.930;5.168;2023-04-03T20:08:51;7.13;;;2.17;;
36575;SDS011;45700;50.930;5.168;2023-04-03T20:12:53;3.05;;;1.90;;
36575;SDS011;45700;50.930;5.168;2023-04-03T20:16:54;2.58;;;1.60;;
36575;SDS011;45700;50.930;5.168;2023-04-03T20:20:56;3.33;;;1.88;;
36575;SDS011;45700;50.930;5.168;2023-04-03T20:24:58;7.82;;;2.33;;
36575;SDS011;45700;50.930;5.168;2023-04-03T20:29:00;5.43;;;1.90;;
36575;SDS011;45700;50.930;5.168;2023-04-03T20:33:02;4.97;;;1.70;;
36575;SDS011;45700;50.930;5.168;2023-04-03T20:37:03;5.03;;;1.75;;
36575;SDS011;45700;50.930;5.168;2023-04-03T20:41:05;6.38;;;2.03;;
36575;SDS011;45700;50.930;5.168;2023-04-03T20:45:06;3.35;;;1.55;;
36575;SDS011;45700;50.930;5.168;2023-04-03T20:49:07;7.13;;;2.15;;
36575;SDS011;45700;50.930;5.168;2023-04-03T20:53:08;3.58;;;1.70;;
36575;SDS011;45700;50.930;5.168;2023-04-03T20:57:09;2.00;;;1.70;;
36575;SDS011;45700;50.930;5.168;2023-04-03T21:01:28;8.50;;;2.13;;
36575;SDS011;45700;50.930;5.168;2023-04-03T21:05:29;3.50;;;1.33;;
36575;SDS011;45700;50.930;5.168;2023-04-03T21:22:35;7.10;;;1.67;;
36575;SDS011;45700;50.930;5.168;2023-04-03T21:26:42;2.35;;;1.10;;
36575;SDS011;45700;50.930;5.168;2023-04-03T21:30:43;6.03;;;2.13;;
36575;SDS011;45700;50.930;5.168;2023-04-03T21:34:44;7.85;;;1.63;;
36575;SDS011;45700;50.930;5.168;2023-04-03T21:38:45;2.17;;;1.00;;
36575;SDS011;45700;50.930;5.168;2023-04-03T21:42:46;7.00;;;1.40;;
36575;SDS011;45700;50.930;5.168;2023-04-03T21:46:53;4.78;;;1.30;;
36575;SDS011;45700;50.930;5.168;2023-04-03T21:51:00;3.78;;;0.93;;
36575;SDS011;45700;50.930;5.168;2023-04-03T21:55:01;3.75;;;1.20;;
36575;SDS011;45700;50.930;5.168;2023-04-03T21:59:02;4.95;;;1.30;;
36575;SDS011;45700;50.930;5.168;2023-04-03T22:03:03;2.28;;;1.20;;
36575;SDS011;45700;50.930;5.168;2023-04-03T22:07:04;3.80;;;1.55;;
36575;SDS011;45700;50.930;5.168;2023-04-03T22:11:06;5.13;;;1.83;;
36575;SDS011;45700;50.930;5.168;2023-04-03T22:15:08;2.58;;;1.50;;
36575;SDS011;45700;50.930;5.168;2023-04-03T22:19:09;2.10;;;1.48;;
36575;SDS011;45700;50.930;5.168;2023-04-03T22:23:10;3.45;;;1.83;;
36575;SDS011;45700;50.930;5.168;2023-04-03T22:27:11;7.05;;;1.30;;
36575;SDS011;45700;50.930;5.168;2023-04-03T22:31:13;3.00;;;1.40;;
36575;SDS011;45700;50.930;5.168;2023-04-03T22:35:15;8.90;;;1.30;;
36575;SDS011;45700;50.930;5.168;2023-04-03T22:39:16;7.50;;;1.45;;
36575;SDS011;45700;50.930;5.168;2023-04-03T22:43:18;4.25;;;1.17;;
36575;SDS011;45700;50.930;5.168;2023-04-03T22:47:19;4.97;;;1.30;;
36575;SDS011;45700;50.930;5.168;2023-04-03T22:51:20;6.50;;;1.15;;
36575;SDS011;45700;50.930;5.168;2023-04-03T22:55:21;2.85;;;1.00;;
36575;SDS011;45700;50.930;5.168;2023-04-03T22:59:23;5.63;;;1.00;;
36575;SDS011;45700;50.930;5.168;2023-04-03T23:03:24;7.95;;;1.98;;
36575;SDS011;45700;50.930;5.168;2023-04-03T23:07:25;3.65;;;0.90;;
36575;SDS011;45700;50.930;5.168;2023-04-03T23:11:26;2.97;;;1.60;;
36575;SDS011;45700;50.930;5.168;2023-04-03T23:15:27;2.55;;;1.17;;
36575;SDS011;45700;50.930;5.168;2023-04-03T23:19:28;2.92;;;1.15;;
36575;SDS011;45700;50.930;5.168;2023-04-03T23:23:29;5.60;;;1.23;;
36575;SDS011;45700;50.930;5.168;2023-04-03T23:27:30;2.13;;;1.20;;
36575;SDS011;45700;50.930;5.168;2023-04-03T23:31:31;4.25;;;1.05;;
36575;SDS011;45700;50.930;5.168;2023-04-03T23:35:32;6.07;;;1.50;;
36575;SDS011;45700;50.930;5.168;2023-04-03T23:39:34;5.60;;;1.38;;
36575;SDS011;45700;50.930;5.168;2023-04-03T23:43:35;2.38;;;1.20;;
36575;SDS011;45700;50.930;5.168;2023-04-03T23:47:36;3.15;;;1.30;;
36575;SDS011;45700;50.930;5.168;2023-04-03T23:51:37;3.50;;;1.17;;
36575;SDS011;45700;50.930;5.168;2023-04-03T23:55:39;2.72;;;1.17;;
36575;SDS011;45700;50.930;5.168;2023-04-03T23:59:40;4.93;;;1.27;;
